Time;durP1;ratioP1;P1;durP2;ratioP2;P2;SDS_P1;SDS_P2;PMS_P1;PMS_P2;Temp;Humidity;BMP_temperature;BMP_pressure;BME280_temperature;BME280_humidity;BME280_pressure;Samples;Min_cycle;Max_cycle;Signal;HPM_P1;HPM_P2
2022/06/22 00:01:47;;;;;;;;;;;20.10;99.90;;;;;;5046960;28;20184;-69
2022/06/22 00:04:17;;;;;;;;;;;20.00;99.90;;;;;;5045769;28;19981;-71
2022/06/22 00:06:45;;;;;;;;;;;20.00;99.90;;;;;;5042948;28;19928;-70
2022/06/22 00:09:21;;;;;;;;;;;19.90;99.90;;;;;;5044134;28;19921;-70
2022/06/22 00:11:48;;;;;;;;;;;19.80;99.90;;;;;;5042556;28;19921;-69
2022/06/22 00:14:17;;;;;;;;;;;19.80;99.90;;;;;;5043818;28;20004;-69
2022/06/22 00:16:48;;;;;;;;;;;19.80;99.90;;;;;;5043332;28;19921;-70
2022/06/22 00:19:19;;;;;;;;;;;19.80;99.90;;;;;;5041289;28;19992;-70
2022/06/22 00:21:49;;;;;;;;;;;19.80;99.90;;;;;;5043565;28;19921;-70
2022/06/22 00:24:30;;;;;;;;;;;19.80;99.90;;;;;;5043882;28;19953;-70
2022/06/22 00:27:00;;;;;;;;;;;19.80;99.90;;;;;;5033327;28;19921;-69
2022/06/22 00:29:34;;;;;;;;;;;19.70;99.90;;;;;;5037943;28;19928;-70
2022/06/22 00:32:03;;;;;;;;;;;19.70;99.90;;;;;;5035136;28;19929;-70
2022/06/22 00:34:31;;;;;;;;;;;19.70;99.90;;;;;;5043619;28;19956;-70
2022/06/22 00:37:00;;;;;;;;;;;19.70;99.90;;;;;;5042761;28;19956;-70
2022/06/22 00:39:32;;;;;;;;;;;19.70;99.90;;;;;;5042241;28;20235;-70
2022/06/22 00:42:01;;;;;;;;;;;19.70;99.90;;;;;;5055146;28;19956;-69
2022/06/22 00:44:30;;;;;;;;;;;19.70;99.90;;;;;;5043363;28;19953;-70
2022/06/22 00:47:02;;;;;;;;;;;19.70;99.90;;;;;;5032124;28;20165;-70
2022/06/22 00:49:30;;;;;;;;;;;19.60;99.90;;;;;;5023581;28;19941;-70
2022/06/22 00:51:59;;;;;;;;;;;19.60;99.90;;;;;;5031032;28;19925;-69
2022/06/22 00:54:27;;;;;;;;;;;19.60;99.90;;;;;;5043689;28;19928;-69
2022/06/22 00:56:58;;;;;;;;;;;19.50;99.90;;;;;;5042236;28;19921;-69
2022/06/22 00:59:31;;;;;;;;;;;19.40;99.90;;;;;;5043355;28;19959;-70
2022/06/22 01:01:59;;;;;;;;;;;19.30;99.90;;;;;;5039329;28;20224;-69
2022/06/22 01:04:29;;;;;;;;;;;19.30;99.90;;;;;;5043074;28;19952;-70
2022/06/22 01:06:58;;;;;;;;;;;19.30;99.90;;;;;;5042559;28;19928;-69
2022/06/22 01:09:27;;;;;;;;;;;19.30;99.90;;;;;;5043338;28;19929;-68
2022/06/22 01:14:46;;;;;;;;;;;19.20;99.90;;;;;;5043107;28;19967;-70
2022/06/22 01:17:16;;;;;;;;;;;19.20;99.90;;;;;;5042595;28;20189;-68
2022/06/22 01:19:47;;;;;;;;;;;19.20;99.90;;;;;;5040531;28;20232;-70
2022/06/22 01:22:22;;;;;;;;;;;19.10;99.90;;;;;;5042779;28;20236;-70
2022/06/22 01:24:53;;;;;;;;;;;19.00;99.90;;;;;;5043261;28;19921;-70
2022/06/22 01:27:23;;;;;;;;;;;19.00;99.90;;;;;;5042518;28;20142;-69
2022/06/22 01:29:51;;;;;;;;;;;19.00;99.90;;;;;;5043018;28;19964;-70
2022/06/22 01:32:21;;;;;;;;;;;18.90;99.90;;;;;;5042410;28;20106;-70
2022/06/22 01:34:48;;;;;;;;;;;18.90;99.90;;;;;;5043148;28;19921;-70
2022/06/22 01:37:17;;;;;;;;;;;18.90;99.90;;;;;;5042251;28;19944;-70
2022/06/22 01:39:44;;;;;;;;;;;18.90;99.90;;;;;;5039877;28;19921;-70
2022/06/22 01:42:17;;;;;;;;;;;18.90;99.90;;;;;;5051365;28;19956;-70
2022/06/22 01:44:47;;;;;;;;;;;18.80;99.90;;;;;;5042870;28;19921;-69
2022/06/22 01:47:21;;;;;;;;;;;18.80;99.90;;;;;;5041851;28;20175;-69
2022/06/22 01:49:50;;;;;;;;;;;18.80;99.90;;;;;;5042833;28;19928;-69
2022/06/22 01:52:22;;;;;;;;;;;18.80;99.90;;;;;;5042736;28;20356;-70
2022/06/22 01:54:56;;;;;;;;;;;18.70;99.90;;;;;;5042668;28;19980;-72
2022/06/22 01:57:26;;;;;;;;;;;18.60;99.90;;;;;;5041897;28;19921;-72
2022/06/22 01:59:57;;;;;;;;;;;18.60;99.90;;;;;;5042520;28;19936;-72
2022/06/22 02:02:26;;;;;;;;;;;18.60;99.90;;;;;;5048309;28;19921;-70
2022/06/22 02:04:56;;;;;;;;;;;18.50;99.90;;;;;;5043669;28;19927;-72
2022/06/22 02:10:15;;;;;;;;;;;18.50;99.90;;;;;;5041329;28;19923;-70
2022/06/22 02:12:43;;;;;;;;;;;18.50;99.90;;;;;;5042795;28;20180;-70
2022/06/22 02:15:16;;;;;;;;;;;18.40;99.90;;;;;;5036962;28;19985;-70
2022/06/22 02:17:45;;;;;;;;;;;18.50;99.90;;;;;;5025142;28;19981;-70
2022/06/22 02:20:21;;;;;;;;;;;18.40;99.90;;;;;;5023961;28;19976;-70
2022/06/22 02:22:48;;;;;;;;;;;18.30;99.90;;;;;;5045979;28;19976;-70
2022/06/22 02:25:17;;;;;;;;;;;18.30;99.90;;;;;;5045438;28;19921;-70
2022/06/22 02:27:43;;;;;;;;;;;18.20;99.90;;;;;;5046020;28;20276;-70
2022/06/22 02:30:10;;;;;;;;;;;18.20;99.90;;;;;;5045971;28;20116;-70
2022/06/22 02:32:40;;;;;;;;;;;18.10;99.90;;;;;;5046149;28;19960;-70
2022/06/22 02:35:07;;;;;;;;;;;18.10;99.90;;;;;;5045603;28;19952;-70
2022/06/22 02:37:35;;;;;;;;;;;18.10;99.90;;;;;;5045560;28;19921;-70
2022/06/22 02:40:04;;;;;;;;;;;18.00;99.90;;;;;;5048891;28;19921;-69
2022/06/22 02:45:17;;;;;;;;;;;18.00;99.90;;;;;;5044822;28;19923;-70
2022/06/22 02:47:46;;;;;;;;;;;17.90;99.90;;;;;;5045884;28;19969;-69
2022/06/22 02:50:16;;;;;;;;;;;17.90;99.90;;;;;;5045593;28;19952;-72
2022/06/22 02:52:46;;;;;;;;;;;17.90;99.90;;;;;;5042133;28;19921;-69
2022/06/22 02:55:14;;;;;;;;;;;17.90;99.90;;;;;;5044868;28;19920;-71
2022/06/22 02:57:46;;;;;;;;;;;17.90;99.90;;;;;;5045280;28;19927;-70
2022/06/22 03:00:13;;;;;;;;;;;17.90;99.90;;;;;;5047186;28;19921;-71
2022/06/22 03:02:41;;;;;;;;;;;17.80;99.90;;;;;;5051262;28;20185;-70
2022/06/22 03:05:10;;;;;;;;;;;17.90;99.90;;;;;;5059927;28;19921;-69
2022/06/22 03:07:37;;;;;;;;;;;17.90;99.90;;;;;;5044843;28;19921;-70
2022/06/22 03:10:05;;;;;;;;;;;17.90;99.90;;;;;;5044964;28;20204;-70
2022/06/22 03:12:32;;;;;;;;;;;17.80;99.90;;;;;;5045216;28;19921;-72
2022/06/22 03:15:00;;;;;;;;;;;17.80;99.90;;;;;;5045238;28;19956;-69
2022/06/22 03:17:29;;;;;;;;;;;17.80;99.90;;;;;;5041979;28;19924;-69
2022/06/22 03:20:00;;;;;;;;;;;17.80;99.90;;;;;;5038410;28;19956;-68
2022/06/22 03:22:30;;;;;;;;;;;17.80;99.90;;;;;;5045039;28;20086;-70
2022/06/22 03:25:00;;;;;;;;;;;17.70;99.90;;;;;;5041074;28;19951;-72
2022/06/22 03:27:29;;;;;;;;;;;17.70;99.90;;;;;;5036404;28;19929;-72
2022/06/22 03:29:58;;;;;;;;;;;17.70;99.90;;;;;;5044805;28;19948;-71
2022/06/22 03:32:26;;;;;;;;;;;17.60;99.90;;;;;;5044847;28;19993;-71
2022/06/22 03:34:59;;;;;;;;;;;17.60;99.90;;;;;;5044304;28;19921;-72
2022/06/22 03:37:28;;;;;;;;;;;17.60;99.90;;;;;;5036034;28;20147;-72
2022/06/22 03:40:01;;;;;;;;;;;17.70;99.90;;;;;;5039982;28;19921;-71
2022/06/22 03:42:31;;;;;;;;;;;17.70;99.90;;;;;;5048878;28;20250;-72
2022/06/22 03:45:02;;;;;;;;;;;17.70;99.90;;;;;;5052104;28;19921;-72
2022/06/22 03:47:32;;;;;;;;;;;17.70;99.90;;;;;;5043964;28;20137;-70
2022/06/22 03:50:01;;;;;;;;;;;17.70;99.90;;;;;;5043996;28;19984;-72
2022/06/22 03:52:32;;;;;;;;;;;17.70;99.90;;;;;;5044416;28;19921;-71
2022/06/22 03:55:02;;;;;;;;;;;17.70;99.90;;;;;;5044385;28;19921;-72
2022/06/22 03:57:33;;;;;;;;;;;17.70;99.90;;;;;;5043798;28;20123;-69
2022/06/22 04:00:00;;;;;;;;;;;17.70;99.90;;;;;;5043830;28;20263;-72
2022/06/22 04:02:27;;;;;;;;;;;17.80;99.90;;;;;;5052344;28;19944;-72
2022/06/22 04:04:54;;;;;;;;;;;17.80;99.90;;;;;;5044408;28;19948;-72
2022/06/22 04:07:21;;;;;;;;;;;17.70;99.90;;;;;;5043773;28;19956;-72
2022/06/22 04:09:51;;;;;;;;;;;17.80;99.90;;;;;;5043960;28;19952;-72
2022/06/22 04:12:22;;;;;;;;;;;17.70;99.90;;;;;;5044135;28;19925;-72
2022/06/22 04:14:51;;;;;;;;;;;17.70;99.90;;;;;;5036605;28;20243;-72
2022/06/22 04:17:21;;;;;;;;;;;17.80;99.90;;;;;;5043602;28;19944;-72
2022/06/22 04:19:49;;;;;;;;;;;17.80;99.90;;;;;;5038900;28;19921;-72
2022/06/22 04:22:18;;;;;;;;;;;17.80;99.90;;;;;;5039010;28;19947;-71
2022/06/22 04:24:48;;;;;;;;;;;17.80;99.90;;;;;;5043073;28;19999;-71
2022/06/22 04:27:17;;;;;;;;;;;17.90;99.90;;;;;;5036542;28;19992;-72
2022/06/22 04:29:47;;;;;;;;;;;18.00;99.90;;;;;;5025264;28;19922;-71
2022/06/22 04:32:17;;;;;;;;;;;18.10;99.90;;;;;;5038592;28;19975;-71
2022/06/22 04:34:46;;;;;;;;;;;18.10;99.90;;;;;;5024934;28;19989;-72
2022/06/22 04:37:20;;;;;;;;;;;18.20;99.90;;;;;;5040384;28;20255;-72
2022/06/22 04:39:49;;;;;;;;;;;18.20;99.90;;;;;;5039251;28;19921;-72
2022/06/22 04:42:16;;;;;;;;;;;18.20;99.90;;;;;;5042123;28;19984;-71
2022/06/22 04:44:45;;;;;;;;;;;18.20;99.90;;;;;;5043469;28;19929;-71
2022/06/22 04:47:17;;;;;;;;;;;18.20;99.90;;;;;;5042361;28;20121;-71
2022/06/22 04:49:46;;;;;;;;;;;18.20;99.90;;;;;;5043026;28;19943;-73
2022/06/22 04:52:17;;;;;;;;;;;18.20;99.90;;;;;;5037031;28;19981;-69
2022/06/22 04:54:46;;;;;;;;;;;18.20;99.90;;;;;;5038003;28;19932;-71
2022/06/22 04:57:15;;;;;;;;;;;18.30;99.90;;;;;;5035030;28;19921;-70
2022/06/22 04:59:42;;;;;;;;;;;18.30;99.90;;;;;;5039739;28;19921;-72
2022/06/22 05:02:11;;;;;;;;;;;18.30;99.90;;;;;;5050394;28;19948;-72
2022/06/22 05:04:40;;;;;;;;;;;18.40;99.90;;;;;;5043465;28;19921;-70
2022/06/22 05:07:12;;;;;;;;;;;18.50;99.90;;;;;;5037978;28;19921;-71
2022/06/22 05:09:41;;;;;;;;;;;18.60;99.90;;;;;;5039805;28;19928;-71
2022/06/22 05:12:11;;;;;;;;;;;18.70;99.90;;;;;;5040977;28;19937;-69
2022/06/22 05:14:39;;;;;;;;;;;18.80;99.90;;;;;;5043108;28;20295;-70
2022/06/22 05:17:07;;;;;;;;;;;18.90;99.90;;;;;;5042132;28;19929;-72
2022/06/22 05:19:36;;;;;;;;;;;18.90;99.90;;;;;;5043071;28;19975;-70
2022/06/22 05:22:09;;;;;;;;;;;19.00;99.90;;;;;;5043273;28;19952;-70
2022/06/22 05:24:37;;;;;;;;;;;19.10;99.90;;;;;;5042697;28;19948;-70
2022/06/22 05:27:06;;;;;;;;;;;19.10;99.90;;;;;;5042582;28;19992;-70
2022/06/22 05:29:36;;;;;;;;;;;19.10;99.90;;;;;;5042734;28;19932;-71
2022/06/22 05:32:05;;;;;;;;;;;19.10;99.90;;;;;;5043015;28;19936;-70
2022/06/22 05:34:34;;;;;;;;;;;19.10;99.90;;;;;;5043271;28;19959;-72
2022/06/22 05:37:01;;;;;;;;;;;19.20;99.90;;;;;;5042789;28;19955;-70
2022/06/22 05:39:31;;;;;;;;;;;19.20;99.90;;;;;;5042567;28;19952;-70
2022/06/22 05:41:58;;;;;;;;;;;19.20;99.90;;;;;;5048802;28;20204;-70
2022/06/22 05:44:25;;;;;;;;;;;19.30;99.90;;;;;;5045097;28;20195;-70
2022/06/22 05:46:53;;;;;;;;;;;19.40;99.90;;;;;;5042511;28;19971;-73
2022/06/22 05:49:21;;;;;;;;;;;19.40;99.90;;;;;;5041676;28;19921;-70
2022/06/22 05:51:51;;;;;;;;;;;19.50;99.90;;;;;;5043630;28;20236;-70
2022/06/22 05:54:20;;;;;;;;;;;19.50;99.90;;;;;;5026845;28;20218;-71
2022/06/22 05:56:52;;;;;;;;;;;19.60;99.90;;;;;;5026241;28;20236;-70
2022/06/22 05:59:22;;;;;;;;;;;19.70;99.90;;;;;;5026911;28;20228;-71
2022/06/22 06:01:55;;;;;;;;;;;19.80;99.90;;;;;;5027232;28;19922;-70
2022/06/22 06:04:27;;;;;;;;;;;19.90;99.90;;;;;;5027239;28;19921;-71
2022/06/22 06:06:56;;;;;;;;;;;20.10;99.90;;;;;;5026584;28;20180;-71
2022/06/22 06:09:24;;;;;;;;;;;20.20;99.90;;;;;;5040555;28;20216;-70
2022/06/22 06:11:54;;;;;;;;;;;20.30;99.90;;;;;;5036322;28;19980;-70
2022/06/22 06:14:23;;;;;;;;;;;20.40;99.90;;;;;;5046340;28;19928;-71
2022/06/22 06:16:52;;;;;;;;;;;20.60;99.90;;;;;;5052368;28;20165;-71
2022/06/22 06:19:22;;;;;;;;;;;20.70;99.90;;;;;;5055074;28;20200;-70
2022/06/22 06:21:51;;;;;;;;;;;20.70;99.90;;;;;;5045980;28;19964;-69
2022/06/22 06:24:19;;;;;;;;;;;20.80;99.90;;;;;;5046139;28;19936;-71
2022/06/22 06:29:35;;;;;;;;;;;20.80;99.90;;;;;;5045678;28;19952;-70
2022/06/22 06:32:06;;;;;;;;;;;20.80;99.90;;;;;;5045860;28;19987;-70
2022/06/22 06:34:35;;;;;;;;;;;20.80;99.90;;;;;;5045937;28;19921;-71
2022/06/22 06:37:03;;;;;;;;;;;20.90;99.90;;;;;;5045218;28;19952;-71
2022/06/22 06:39:33;;;;;;;;;;;21.00;99.90;;;;;;5044706;28;19989;-70
2022/06/22 06:42:05;;;;;;;;;;;21.00;99.90;;;;;;5044571;28;19921;-71
2022/06/22 06:44:36;;;;;;;;;;;21.10;99.90;;;;;;5045766;28;19925;-71
2022/06/22 06:47:05;;;;;;;;;;;21.20;99.90;;;;;;5045253;28;19921;-71
2022/06/22 06:49:34;;;;;;;;;;;21.20;99.90;;;;;;5045824;28;19924;-70
2022/06/22 06:52:03;;;;;;;;;;;21.30;99.90;;;;;;5045742;28;19921;-71
2022/06/22 06:54:32;;;;;;;;;;;21.30;99.90;;;;;;5045511;28;19928;-70
2022/06/22 06:57:02;;;;;;;;;;;21.40;99.90;;;;;;5044910;28;19921;-70
2022/06/22 06:59:30;;;;;;;;;;;21.40;99.90;;;;;;5041488;28;20027;-71
2022/06/22 07:02:04;;;;;;;;;;;21.50;99.90;;;;;;5045907;28;19948;-70
2022/06/22 07:04:32;;;;;;;;;;;21.60;99.90;;;;;;5025974;28;20112;-71
2022/06/22 07:07:03;;;;;;;;;;;21.70;99.90;;;;;;5025365;28;20150;-71
2022/06/22 07:09:31;;;;;;;;;;;21.80;99.90;;;;;;5041017;28;20113;-71
2022/06/22 07:12:01;;;;;;;;;;;21.90;99.90;;;;;;5043182;28;19984;-69
2022/06/22 07:14:29;;;;;;;;;;;21.90;99.90;;;;;;5045438;28;20235;-70
2022/06/22 07:16:59;;;;;;;;;;;22.10;99.90;;;;;;5044944;28;19928;-70
2022/06/22 07:19:29;;;;;;;;;;;22.10;99.90;;;;;;5045410;28;20151;-70
2022/06/22 07:22:00;;;;;;;;;;;22.30;99.90;;;;;;5044865;28;19964;-69
2022/06/22 07:24:29;;;;;;;;;;;22.40;99.90;;;;;;5044969;28;19936;-70
2022/06/22 07:26:58;;;;;;;;;;;22.50;99.90;;;;;;5044003;28;19941;-71
2022/06/22 07:29:28;;;;;;;;;;;22.50;99.90;;;;;;5044807;28;19925;-70
2022/06/22 07:31:58;;;;;;;;;;;22.60;99.90;;;;;;5042547;28;20116;-69
2022/06/22 07:34:28;;;;;;;;;;;22.70;99.90;;;;;;5044448;28;19927;-70
2022/06/22 07:36:59;;;;;;;;;;;22.80;99.90;;;;;;5044359;28;20266;-69
2022/06/22 07:39:30;;;;;;;;;;;22.80;99.90;;;;;;5044044;28;19963;-72
2022/06/22 07:41:59;;;;;;;;;;;22.90;99.90;;;;;;5032223;28;19921;-72
2022/06/22 07:44:27;;;;;;;;;;;23.00;99.90;;;;;;5044163;28;19967;-73
2022/06/22 07:46:57;;;;;;;;;;;23.10;99.90;;;;;;5043870;28;19928;-70
2022/06/22 07:49:27;;;;;;;;;;;23.20;99.90;;;;;;5044346;28;19944;-72
2022/06/22 07:51:55;;;;;;;;;;;23.30;99.90;;;;;;5044702;28;19984;-70
2022/06/22 07:54:26;;;;;;;;;;;23.40;99.90;;;;;;5044778;28;20165;-72
2022/06/22 07:57:04;;;;;;;;;;;23.50;99.90;;;;;;5044278;28;19944;-72
2022/06/22 07:59:32;;;;;;;;;;;23.70;99.90;;;;;;5044657;28;19957;-72
2022/06/22 08:02:00;;;;;;;;;;;23.80;99.90;;;;;;5045074;28;19984;-71
2022/06/22 08:04:29;;;;;;;;;;;24.00;99.90;;;;;;5025071;28;19927;-68
2022/06/22 08:06:58;;;;;;;;;;;24.00;99.90;;;;;;5025593;28;19956;-69
2022/06/22 08:09:30;;;;;;;;;;;24.10;99.90;;;;;;5044699;28;19984;-69
2022/06/22 08:11:58;;;;;;;;;;;24.20;99.90;;;;;;5044708;28;19967;-69
2022/06/22 08:14:28;;;;;;;;;;;24.30;99.90;;;;;;5042469;28;20204;-69
2022/06/22 08:16:57;;;;;;;;;;;24.40;99.90;;;;;;5035327;28;19922;-69
2022/06/22 08:19:27;;;;;;;;;;;24.50;99.90;;;;;;5024886;28;19921;-69
2022/06/22 08:21:56;;;;;;;;;;;24.60;99.90;;;;;;5033140;28;19921;-69
2022/06/22 08:24:22;;;;;;;;;;;24.80;99.90;;;;;;5044399;28;19925;-70
2022/06/22 08:26:51;;;;;;;;;;;24.90;99.90;;;;;;5043990;28;19928;-69
2022/06/22 08:29:26;;;;;;;;;;;25.10;99.90;;;;;;5043708;28;19957;-69
2022/06/22 08:31:56;;;;;;;;;;;25.10;99.90;;;;;;5031429;28;19980;-69
2022/06/22 08:34:27;;;;;;;;;;;25.20;99.90;;;;;;5030088;28;19948;-69
2022/06/22 08:36:56;;;;;;;;;;;25.20;99.90;;;;;;5043578;28;19960;-69
2022/06/22 08:39:33;;;;;;;;;;;25.30;99.90;;;;;;5041420;28;19969;-70
2022/06/22 08:42:06;;;;;;;;;;;25.40;99.90;;;;;;5044032;28;19928;-69
2022/06/22 08:44:40;;;;;;;;;;;25.50;99.90;;;;;;5030182;28;19929;-69
2022/06/22 08:47:12;;;;;;;;;;;25.50;99.90;;;;;;5023562;28;19921;-71
2022/06/22 08:49:54;;;;;;;;;;;25.50;99.90;;;;;;5026575;28;19989;-73
2022/06/22 08:52:25;;;;;;;;;;;25.50;99.90;;;;;;5041592;28;19988;-68
2022/06/22 08:55:09;;;;;;;;;;;25.50;99.90;;;;;;5043730;28;19925;-68
2022/06/22 08:57:43;;;;;;;;;;;25.60;99.90;;;;;;5044024;28;19963;-68
2022/06/22 09:00:14;;;;;;;;;;;25.70;99.90;;;;;;5043302;28;20280;-69
2022/06/22 09:02:55;;;;;;;;;;;25.60;99.90;;;;;;5044173;28;19921;-69
2022/06/22 09:05:36;;;;;;;;;;;25.70;99.90;;;;;;5038398;28;19929;-69
2022/06/22 09:08:21;;;;;;;;;;;25.70;99.90;;;;;;5027229;28;19921;-69
2022/06/22 09:10:58;;;;;;;;;;;25.70;99.90;;;;;;5043975;28;19952;-70
2022/06/22 09:13:46;;;;;;;;;;;25.80;99.90;;;;;;5044017;28;19952;-69
2022/06/22 09:16:23;;;;;;;;;;;25.80;99.90;;;;;;5021130;28;19922;-69
2022/06/22 09:19:01;;;;;;;;;;;25.80;99.90;;;;;;5024222;28;20180;-69
2022/06/22 09:21:31;;;;;;;;;;;25.80;99.90;;;;;;5023833;28;19984;-70
2022/06/22 09:24:04;;;;;;;;;;;25.80;99.90;;;;;;5033831;28;20279;-69
2022/06/22 09:26:35;;;;;;;;;;;25.90;99.90;;;;;;5045293;28;19935;-69
2022/06/22 09:29:04;;;;;;;;;;;25.90;99.90;;;;;;5047691;28;19921;-69
2022/06/22 09:31:46;;;;;;;;;;;25.90;99.90;;;;;;5047519;28;19921;-69
2022/06/22 09:34:23;;;;;;;;;;;25.90;99.90;;;;;;5046564;28;19921;-71
2022/06/22 09:36:59;;;;;;;;;;;25.90;99.90;;;;;;5047031;28;19953;-71
2022/06/22 09:39:45;;;;;;;;;;;26.00;99.90;;;;;;5044859;28;19987;-72
2022/06/22 09:42:21;;;;;;;;;;;26.00;99.90;;;;;;5017281;28;19957;-69
2022/06/22 09:45:07;;;;;;;;;;;26.00;99.90;;;;;;5046964;28;20235;-70
2022/06/22 09:47:45;;;;;;;;;;;26.10;99.90;;;;;;5045936;28;19960;-69
2022/06/22 09:50:24;;;;;;;;;;;26.20;99.90;;;;;;5027430;28;20180;-70
2022/06/22 09:53:09;;;;;;;;;;;26.20;99.90;;;;;;5027428;28;19921;-69
2022/06/22 09:58:41;;;;;;;;;;;26.30;99.90;;;;;;5027408;28;19924;-69
2022/06/22 10:01:12;;;;;;;;;;;26.30;99.90;;;;;;5031797;28;20136;-69
2022/06/22 10:03:53;;;;;;;;;;;26.40;99.90;;;;;;5046289;28;20214;-68
2022/06/22 10:06:36;;;;;;;;;;;26.50;99.90;;;;;;5026738;28;19984;-69
2022/06/22 10:09:17;;;;;;;;;;;26.50;99.90;;;;;;5038495;28;19921;-69
2022/06/22 10:11:48;;;;;;;;;;;26.50;99.90;;;;;;5038984;28;19952;-69
2022/06/22 10:14:26;;;;;;;;;;;26.50;99.90;;;;;;5044196;28;19921;-69
2022/06/22 10:17:03;;;;;;;;;;;26.50;99.90;;;;;;5046117;28;19921;-68
2022/06/22 10:19:47;;;;;;;;;;;26.50;99.90;;;;;;5041694;28;19929;-69
2022/06/22 10:22:20;;;;;;;;;;;26.50;99.90;;;;;;5028112;28;19928;-69
2022/06/22 10:25:04;;;;;;;;;;;26.50;99.90;;;;;;5046517;28;20259;-69
2022/06/22 10:27:48;;;;;;;;;;;26.50;99.90;;;;;;5039024;28;19921;-68
2022/06/22 10:30:26;;;;;;;;;;;26.50;99.90;;;;;;5046722;28;19984;-68
2022/06/22 10:33:01;;;;;;;;;;;26.40;99.90;;;;;;5046819;28;20109;-68
2022/06/22 10:35:47;;;;;;;;;;;26.30;99.90;;;;;;5042519;28;19927;-69
2022/06/22 10:38:28;;;;;;;;;;;26.30;99.90;;;;;;5044454;28;20124;-69
2022/06/22 10:46:46;;;;;;;;;;;26.40;99.90;;;;;;5031249;28;19971;-69
2022/06/22 10:49:36;;;;;;;;;;;26.40;99.90;;;;;;5046104;28;19921;-69
2022/06/22 10:52:12;;;;;;;;;;;26.40;99.90;;;;;;5046530;28;19929;-69
2022/06/22 10:54:51;;;;;;;;;;;26.30;99.90;;;;;;5026586;28;20140;-69
2022/06/22 10:57:24;;;;;;;;;;;26.30;99.90;;;;;;5028478;28;19922;-69
2022/06/22 11:00:02;;;;;;;;;;;26.30;99.90;;;;;;5026126;28;19922;-68
2022/06/22 11:03:02;;;;;;;;;;;26.30;99.90;;;;;;5026423;28;19967;-68
2022/06/22 11:05:44;;;;;;;;;;;26.30;99.90;;;;;;5025592;28;19976;-69
2022/06/22 11:08:21;;;;;;;;;;;26.30;99.90;;;;;;5026094;28;20243;-69
2022/06/22 11:11:03;;;;;;;;;;;26.30;99.90;;;;;;5021187;28;19921;-69
2022/06/22 11:13:43;;;;;;;;;;;26.40;99.90;;;;;;5033222;28;19960;-69
2022/06/22 11:16:25;;;;;;;;;;;26.40;99.90;;;;;;5044721;28;19921;-69
2022/06/22 11:19:10;;;;;;;;;;;26.50;99.90;;;;;;5045800;28;19929;-69
2022/06/22 11:21:43;;;;;;;;;;;26.50;99.90;;;;;;5045478;28;19928;-69
2022/06/22 11:24:29;;;;;;;;;;;26.60;99.90;;;;;;5045155;28;19936;-69
2022/06/22 11:32:53;;;;;;;;;;;26.70;99.90;;;;;;5044796;28;20007;-70
2022/06/22 11:35:34;;;;;;;;;;;26.70;99.90;;;;;;5044218;28;19996;-70
2022/06/22 11:38:09;;;;;;;;;;;26.70;99.90;;;;;;5043876;28;20209;-69
2022/06/22 11:40:44;;;;;;;;;;;26.70;99.90;;;;;;5044416;28;19921;-70
2022/06/22 11:43:24;;;;;;;;;;;26.80;99.90;;;;;;5044844;28;20220;-70
2022/06/22 11:45:56;;;;;;;;;;;26.70;99.90;;;;;;5044213;28;19921;-69
2022/06/22 11:48:38;;;;;;;;;;;26.60;99.90;;;;;;5039518;28;19959;-70
2022/06/22 11:51:12;;;;;;;;;;;26.40;99.90;;;;;;5033558;28;19921;-69
2022/06/22 11:54:00;;;;;;;;;;;26.40;99.90;;;;;;5044684;28;20120;-69
2022/06/22 11:56:33;;;;;;;;;;;26.30;99.90;;;;;;5031269;28;19928;-69
2022/06/22 11:59:09;;;;;;;;;;;26.30;99.90;;;;;;5035791;28;19920;-70
2022/06/22 12:01:47;;;;;;;;;;;26.30;99.90;;;;;;5037305;28;19980;-70
2022/06/22 12:04:22;;;;;;;;;;;26.20;99.90;;;;;;5024644;28;19921;-69
2022/06/22 12:07:04;;;;;;;;;;;26.20;99.90;;;;;;5027122;28;19952;-68
2022/06/22 12:09:33;;;;;;;;;;;26.10;99.90;;;;;;5040443;28;20270;-69
2022/06/22 12:12:17;;;;;;;;;;;26.10;99.90;;;;;;5054197;28;20283;-70
2022/06/22 12:15:09;;;;;;;;;;;26.10;99.90;;;;;;5042025;28;19921;-69
2022/06/22 12:17:53;;;;;;;;;;;26.00;99.90;;;;;;5038617;28;19929;-69
2022/06/22 12:20:26;;;;;;;;;;;26.00;99.90;;;;;;5041252;28;19947;-69
2022/06/22 12:22:59;;;;;;;;;;;26.00;99.90;;;;;;5044567;28;19967;-71
2022/06/22 12:25:33;;;;;;;;;;;26.00;99.90;;;;;;5043122;28;19943;-68
2022/06/22 12:28:03;;;;;;;;;;;26.00;99.90;;;;;;5043661;28;19960;-70
2022/06/22 12:30:38;;;;;;;;;;;26.00;99.90;;;;;;5038941;28;20098;-70
2022/06/22 12:33:09;;;;;;;;;;;25.90;99.90;;;;;;5043926;28;20236;-71
2022/06/22 12:35:41;;;;;;;;;;;25.80;99.90;;;;;;5043656;28;19921;-70
2022/06/22 12:38:14;;;;;;;;;;;25.80;99.90;;;;;;5043911;28;19921;-71
2022/06/22 12:40:46;;;;;;;;;;;25.80;99.90;;;;;;5043885;28;19921;-70
2022/06/22 12:43:27;;;;;;;;;;;25.80;99.90;;;;;;5043851;28;19987;-70
2022/06/22 12:45:56;;;;;;;;;;;25.70;99.90;;;;;;5031597;28;19929;-70
2022/06/22 12:48:51;;;;;;;;;;;25.70;99.90;;;;;;5042551;28;19936;-70
2022/06/22 12:51:23;;;;;;;;;;;25.60;99.90;;;;;;5043805;28;20204;-71
2022/06/22 12:53:52;;;;;;;;;;;25.70;99.90;;;;;;5038855;28;19921;-70
2022/06/22 12:56:22;;;;;;;;;;;25.70;99.90;;;;;;5042843;28;19963;-71
2022/06/22 12:58:52;;;;;;;;;;;25.70;99.90;;;;;;5043910;28;20144;-70
2022/06/22 13:01:20;;;;;;;;;;;25.70;99.90;;;;;;5043075;28;20081;-71
2022/06/22 13:03:50;;;;;;;;;;;25.70;99.90;;;;;;5043765;28;19941;-70
2022/06/22 13:06:16;;;;;;;;;;;25.60;99.90;;;;;;5042780;28;20209;-70
2022/06/22 13:08:44;;;;;;;;;;;25.60;99.90;;;;;;5040730;28;19983;-71
2022/06/22 13:11:17;;;;;;;;;;;25.50;99.90;;;;;;5035996;28;20815;-70
2022/06/22 13:13:49;;;;;;;;;;;25.40;99.90;;;;;;5043590;28;19979;-70
2022/06/22 13:16:17;;;;;;;;;;;25.30;99.90;;;;;;5042906;28;19921;-71
2022/06/22 13:18:50;;;;;;;;;;;25.30;99.90;;;;;;5042984;28;19929;-71
2022/06/22 13:21:21;;;;;;;;;;;25.10;99.90;;;;;;5043126;28;19928;-72
2022/06/22 13:23:53;;;;;;;;;;;24.80;99.90;;;;;;5043608;28;19921;-70
2022/06/22 13:26:29;;;;;;;;;;;24.50;99.90;;;;;;5042897;28;19971;-71
2022/06/22 13:28:59;;;;;;;;;;;24.10;99.90;;;;;;5022781;28;20263;-71
2022/06/22 13:31:28;;;;;;;;;;;23.60;99.90;;;;;;5023860;28;19992;-70
2022/06/22 13:33:57;;;;;;;;;;;23.30;99.90;;;;;;5023578;28;19964;-70
2022/06/22 13:36:31;;;;;;;;;;;23.10;99.90;;;;;;5023120;28;19921;-70
2022/06/22 13:39:04;;;;;;;;;;;22.90;99.90;;;;;;5023749;28;19960;-70
2022/06/22 13:41:42;;;;;;;;;;;22.70;99.90;;;;;;5030495;28;19966;-71
2022/06/22 13:44:18;;;;;;;;;;;22.60;99.90;;;;;;5042623;28;19928;-70
2022/06/22 13:46:55;;;;;;;;;;;22.50;99.90;;;;;;5042416;28;19921;-71
2022/06/22 13:49:31;;;;;;;;;;;22.50;99.90;;;;;;5042178;28;19932;-71
2022/06/22 13:52:12;;;;;;;;;;;22.40;99.90;;;;;;5042530;28;19929;-70
2022/06/22 13:54:50;;;;;;;;;;;22.30;99.90;;;;;;5042195;28;20101;-71
2022/06/22 13:57:19;;;;;;;;;;;22.20;99.90;;;;;;5042155;28;19921;-71
2022/06/22 14:02:24;;;;;;;;;;;22.10;99.90;;;;;;5054586;28;19945;-71
2022/06/22 14:04:56;;;;;;;;;;;21.90;99.90;;;;;;5056205;28;19920;-69
2022/06/22 14:07:26;;;;;;;;;;;21.90;99.90;;;;;;5054643;28;19929;-69
2022/06/22 14:09:54;;;;;;;;;;;21.80;99.90;;;;;;5057495;28;19958;-68
2022/06/22 14:12:24;;;;;;;;;;;21.70;99.90;;;;;;5063033;28;19928;-68
2022/06/22 14:14:57;;;;;;;;;;;21.70;99.90;;;;;;5066665;28;20100;-71
2022/06/22 14:17:26;;;;;;;;;;;21.70;99.90;;;;;;5066253;28;19921;-71
2022/06/22 14:19:59;;;;;;;;;;;21.60;99.90;;;;;;5065728;28;19944;-69
2022/06/22 14:22:29;;;;;;;;;;;21.60;99.90;;;;;;5066344;28;20170;-69
2022/06/22 14:24:58;;;;;;;;;;;21.50;99.90;;;;;;5066408;28;19956;-68
2022/06/22 14:27:32;;;;;;;;;;;21.40;99.90;;;;;;5063521;28;19943;-69
2022/06/22 14:30:05;;;;;;;;;;;21.40;99.90;;;;;;5066397;28;19921;-71
2022/06/22 14:32:37;;;;;;;;;;;21.40;99.90;;;;;;5066991;28;19988;-69
2022/06/22 14:35:09;;;;;;;;;;;21.20;99.90;;;;;;5065928;28;19921;-69
2022/06/22 14:37:44;;;;;;;;;;;21.10;99.90;;;;;;5066003;28;19952;-68
2022/06/22 14:40:15;;;;;;;;;;;21.10;99.90;;;;;;5066203;28;19950;-69
2022/06/22 14:42:48;;;;;;;;;;;21.10;99.90;;;;;;5064342;28;19920;-68
2022/06/22 14:45:18;;;;;;;;;;;21.00;99.90;;;;;;5065411;28;19970;-67
2022/06/22 14:47:46;;;;;;;;;;;21.10;99.90;;;;;;5065554;28;19971;-67
2022/06/22 14:50:18;;;;;;;;;;;21.10;99.90;;;;;;5066018;28;19921;-68
2022/06/22 14:52:49;;;;;;;;;;;21.10;99.90;;;;;;5065949;28;19927;-68
2022/06/22 14:55:19;;;;;;;;;;;21.10;99.90;;;;;;5065348;28;19987;-68
2022/06/22 14:57:49;;;;;;;;;;;21.10;99.90;;;;;;5054275;28;20004;-70
2022/06/22 15:00:20;;;;;;;;;;;21.10;99.90;;;;;;5045764;28;19921;-68
2022/06/22 15:02:50;;;;;;;;;;;21.10;99.90;;;;;;5056307;28;19921;-68
2022/06/22 15:05:23;;;;;;;;;;;21.10;99.90;;;;;;5065163;28;19952;-68
2022/06/22 15:07:54;;;;;;;;;;;21.10;99.90;;;;;;5065880;28;19928;-67
2022/06/22 15:10:25;;;;;;;;;;;21.10;99.90;;;;;;5045569;28;19921;-71
2022/06/22 15:12:59;;;;;;;;;;;21.10;99.90;;;;;;5045907;28;19953;-68